createdAt,value
2023-04-30T00:02:03.676Z,27.65
2023-04-30T00:04:32.082Z,31.65
2023-04-30T00:07:01.172Z,33.75
2023-04-30T00:09:29.438Z,31.75
2023-04-30T00:11:57.758Z,26.50
2023-04-30T00:14:26.087Z,29.27
2023-04-30T00:16:54.301Z,31.95
2023-04-30T00:19:22.578Z,29.20
2023-04-30T00:21:50.903Z,31.65
2023-04-30T00:24:19.213Z,28.30
2023-04-30T00:26:47.932Z,30.50
2023-04-30T00:29:16.181Z,28.88
2023-04-30T00:31:44.442Z,28.80
2023-04-30T00:34:12.817Z,27.77
2023-04-30T00:36:41.372Z,29.20
2023-04-30T00:39:09.880Z,29.92
2023-04-30T00:41:38.691Z,31.50
2023-04-30T00:44:07.000Z,27.58
2023-04-30T00:46:35.226Z,29.35
2023-04-30T00:49:05.140Z,30.27
2023-04-30T00:51:35.041Z,28.70
2023-04-30T00:54:03.832Z,26.48
2023-04-30T00:56:32.886Z,29.20
2023-04-30T00:59:01.411Z,30.63
2023-04-30T01:01:29.775Z,27.67
2023-04-30T01:03:58.423Z,30.60
2023-04-30T01:06:27.216Z,28.98
2023-04-30T01:08:57.322Z,28.27
2023-04-30T01:11:56.659Z,32.78
2023-04-30T01:14:31.006Z,31.88
2023-04-30T01:17:08.693Z,27.65
2023-04-30T01:19:44.350Z,26.80
2023-04-30T01:22:35.470Z,30.45
2023-04-30T01:25:11.147Z,29.25
2023-04-30T01:28:14.792Z,33.03
2023-04-30T01:30:46.530Z,32.17
2023-04-30T01:33:15.192Z,29.23
2023-04-30T01:36:11.376Z,34.53
2023-04-30T01:39:04.192Z,32.70
2023-04-30T01:41:39.822Z,32.00
2023-04-30T01:44:41.151Z,32.75
2023-04-30T01:47:16.760Z,35.15
2023-04-30T01:49:51.053Z,36.85
2023-04-30T01:52:30.349Z,31.67
2023-04-30T01:55:05.427Z,33.97
2023-04-30T01:57:38.480Z,30.27
2023-04-30T02:00:10.883Z,30.23
2023-04-30T02:02:41.968Z,32.00
2023-04-30T02:05:10.391Z,30.23
2023-04-30T02:07:42.787Z,29.40
2023-04-30T02:10:12.498Z,31.00
2023-04-30T02:12:41.141Z,30.90
2023-04-30T02:15:10.026Z,28.40
2023-04-30T02:17:38.453Z,33.00
2023-04-30T02:20:08.710Z,31.92
2023-04-30T02:22:37.409Z,26.38
2023-04-30T02:25:06.100Z,29.45
2023-04-30T02:27:34.877Z,29.13
2023-04-30T02:30:04.386Z,30.60
2023-04-30T02:32:32.845Z,32.53
2023-04-30T02:35:01.659Z,31.73
2023-04-30T02:37:29.964Z,28.85
2023-04-30T02:39:58.316Z,31.67
2023-04-30T02:42:27.102Z,28.75
2023-04-30T02:44:55.402Z,30.98
2023-04-30T02:47:23.772Z,29.73
2023-04-30T02:49:52.348Z,30.17
2023-04-30T02:52:20.738Z,29.92
2023-04-30T02:54:49.135Z,32.50
2023-04-30T02:57:17.411Z,33.58
2023-04-30T02:59:46.382Z,31.83
2023-04-30T03:02:15.625Z,31.48
2023-04-30T03:04:43.873Z,30.98
2023-04-30T03:07:12.092Z,33.03
2023-04-30T03:09:40.365Z,32.72
2023-04-30T03:12:08.621Z,33.05
2023-04-30T03:14:37.619Z,35.40
2023-04-30T03:17:06.015Z,28.70
2023-04-30T03:19:34.978Z,33.03
2023-04-30T03:22:04.852Z,31.08
2023-04-30T03:24:33.142Z,36.75
2023-04-30T03:27:02.090Z,34.63
2023-04-30T03:29:30.416Z,32.88
2023-04-30T03:31:58.760Z,34.83
2023-04-30T03:34:27.186Z,35.92
2023-04-30T03:36:55.586Z,29.05
2023-04-30T03:39:23.868Z,30.55
2023-04-30T03:41:52.079Z,28.33
2023-04-30T03:44:20.383Z,25.80
2023-04-30T03:46:48.618Z,27.48
2023-04-30T03:49:16.896Z,24.33
2023-04-30T03:51:46.994Z,23.88
2023-04-30T03:54:15.196Z,26.35
2023-04-30T03:56:44.273Z,23.08
2023-04-30T03:59:12.679Z,26.55
2023-04-30T04:01:41.954Z,26.13
2023-04-30T04:04:10.841Z,26.83
2023-04-30T04:06:39.280Z,25.90
2023-04-30T04:09:07.865Z,23.23
2023-04-30T04:11:36.161Z,25.15
2023-04-30T04:14:04.489Z,24.38
2023-04-30T04:16:32.861Z,26.30
2023-04-30T04:19:01.156Z,27.45
2023-04-30T04:21:29.942Z,24.65
2023-04-30T04:23:58.989Z,24.25
2023-04-30T04:26:28.823Z,22.48
2023-04-30T04:28:57.085Z,22.88
2023-04-30T04:31:26.110Z,24.25
2023-04-30T04:33:58.727Z,26.80
2023-04-30T04:36:28.520Z,25.60
2023-04-30T04:39:01.921Z,24.40
2023-04-30T04:41:32.859Z,24.65
2023-04-30T04:44:04.688Z,23.58
2023-04-30T04:46:33.327Z,27.95
2023-04-30T04:49:02.288Z,24.38
2023-04-30T04:51:32.279Z,24.15
2023-04-30T04:54:00.806Z,25.05
2023-04-30T04:56:29.173Z,26.95
2023-04-30T04:58:58.436Z,26.38
2023-04-30T05:01:27.016Z,29.25
2023-04-30T05:03:56.157Z,29.33
2023-04-30T05:06:24.672Z,28.50
2023-04-30T05:08:52.928Z,27.73
2023-04-30T05:11:22.135Z,36.10
2023-04-30T05:13:52.748Z,27.48
2023-04-30T05:16:21.101Z,29.25
2023-04-30T05:18:49.396Z,27.15
2023-04-30T05:21:17.703Z,29.52
2023-04-30T05:23:46.055Z,34.80
2023-04-30T05:26:14.317Z,27.73
2023-04-30T05:28:42.500Z,28.33
2023-04-30T05:31:10.830Z,28.88
2023-04-30T05:33:40.813Z,29.35
2023-04-30T05:36:10.019Z,28.38
2023-04-30T05:38:38.423Z,26.45
2023-04-30T05:41:06.692Z,30.70
2023-04-30T05:43:34.879Z,25.75
2023-04-30T05:46:03.622Z,29.08
2023-04-30T05:48:31.929Z,27.40
2023-04-30T05:51:00.275Z,22.98
2023-04-30T05:53:28.624Z,21.63
2023-04-30T05:55:56.922Z,22.13
2023-04-30T05:58:25.943Z,24.20
2023-04-30T06:00:54.594Z,24.85
2023-04-30T06:03:23.596Z,27.05
2023-04-30T06:05:51.819Z,29.73
2023-04-30T06:08:20.097Z,24.40
2023-04-30T06:10:48.651Z,27.75
2023-04-30T06:13:16.899Z,26.35
2023-04-30T06:15:46.140Z,28.75
2023-04-30T06:18:14.522Z,26.98
2023-04-30T06:20:42.746Z,24.55
2023-04-30T06:23:11.200Z,24.38
2023-04-30T06:25:39.940Z,27.55
2023-04-30T06:28:09.836Z,24.42
2023-04-30T06:30:38.156Z,24.58
2023-04-30T06:33:06.733Z,19.70
2023-04-30T06:35:35.576Z,21.85
2023-04-30T06:38:04.195Z,24.63
2023-04-30T06:40:32.756Z,23.95
2023-04-30T06:43:00.988Z,19.25
2023-04-30T06:45:29.720Z,22.23
2023-04-30T06:47:59.628Z,26.88
2023-04-30T06:50:28.113Z,19.77
2023-04-30T06:52:56.407Z,21.52
2023-04-30T06:55:25.205Z,18.98
2023-04-30T06:57:54.474Z,20.73
2023-04-30T07:00:22.743Z,22.58
2023-04-30T07:02:52.243Z,18.95
2023-04-30T07:05:20.594Z,26.38
2023-04-30T07:07:49.281Z,25.50
2023-04-30T07:10:18.442Z,24.77
2023-04-30T07:12:46.918Z,32.35
2023-04-30T07:15:15.347Z,32.30
2023-04-30T07:17:43.657Z,33.05
2023-04-30T07:20:14.494Z,34.40
2023-04-30T07:22:46.274Z,32.47
2023-04-30T07:25:14.935Z,29.88
2023-04-30T07:27:43.338Z,34.53
2023-04-30T07:30:11.658Z,30.75
2023-04-30T07:32:41.600Z,30.55
2023-04-30T07:35:10.114Z,31.13
2023-04-30T07:37:40.457Z,30.30
2023-04-30T07:40:15.379Z,30.75
2023-04-30T07:42:45.683Z,26.90
2023-04-30T07:45:14.041Z,28.80
2023-04-30T07:47:42.333Z,26.83
2023-04-30T07:50:12.424Z,25.73
2023-04-30T07:52:41.238Z,26.65
2023-04-30T07:55:10.352Z,24.45
2023-04-30T07:57:38.602Z,24.15
2023-04-30T08:00:07.586Z,24.30
2023-04-30T08:02:40.740Z,27.15
2023-04-30T08:05:09.545Z,23.23
2023-04-30T08:07:37.920Z,21.83
2023-04-30T08:10:07.076Z,23.55
2023-04-30T08:12:37.407Z,24.33
2023-04-30T08:15:07.719Z,22.30
2023-04-30T08:17:36.476Z,21.20
2023-04-30T08:20:05.805Z,24.02
2023-04-30T08:22:34.236Z,19.67
2023-04-30T08:25:02.718Z,19.15
2023-04-30T08:27:32.512Z,19.23
2023-04-30T08:30:00.752Z,15.20
2023-04-30T08:32:29.656Z,18.35
2023-04-30T08:34:57.811Z,16.35
2023-04-30T08:37:26.023Z,14.52
2023-04-30T08:39:54.633Z,13.52
2023-04-30T08:42:29.487Z,16.10
2023-04-30T08:45:02.003Z,12.45
2023-04-30T08:47:30.723Z,14.63
2023-04-30T08:49:59.014Z,17.50
2023-04-30T08:52:28.748Z,15.90
2023-04-30T08:54:59.015Z,18.00
2023-04-30T08:57:28.032Z,14.98
2023-04-30T08:59:56.635Z,12.35
2023-04-30T09:02:25.143Z,13.38
2023-04-30T09:04:54.040Z,13.27
2023-04-30T09:07:25.477Z,7.93
2023-04-30T09:09:54.305Z,10.07
2023-04-30T09:12:22.979Z,11.40
2023-04-30T09:15:05.720Z,4.15
2023-04-30T09:17:35.383Z,6.80
2023-04-30T09:20:13.780Z,3.42
2023-04-30T09:22:42.709Z,2.35
2023-04-30T09:25:14.245Z,3.83
2023-04-30T09:27:43.337Z,5.00
2023-04-30T09:30:32.075Z,1.40
2023-04-30T09:33:00.498Z,4.00
2023-04-30T09:35:36.694Z,1.83
2023-04-30T09:38:05.400Z,1.25
2023-04-30T09:40:41.744Z,1.33
2023-04-30T09:43:10.128Z,1.58
2023-04-30T09:45:51.427Z,1.50
2023-04-30T09:48:23.180Z,0.93
2023-04-30T09:50:52.201Z,2.42
2023-04-30T09:53:20.872Z,4.57
2023-04-30T09:55:50.961Z,2.38
2023-04-30T09:58:20.149Z,1.70
2023-04-30T10:00:50.646Z,2.58
2023-04-30T10:03:21.435Z,4.10
2023-04-30T10:05:51.132Z,3.72
2023-04-30T10:08:32.004Z,2.55
2023-04-30T10:11:04.808Z,1.48
2023-04-30T10:13:47.338Z,5.75
2023-04-30T10:16:24.491Z,1.85
2023-04-30T10:18:54.499Z,4.18
2023-04-30T10:21:24.971Z,2.08
2023-04-30T10:23:54.793Z,3.47
2023-04-30T10:26:24.707Z,1.67
2023-04-30T10:28:54.418Z,1.23
2023-04-30T10:31:23.888Z,1.58
2023-04-30T10:34:22.935Z,1.33
2023-04-30T10:37:00.556Z,1.42
2023-04-30T10:39:29.503Z,1.30
2023-04-30T10:42:05.937Z,1.08
2023-04-30T10:44:36.832Z,1.65
2023-04-30T10:47:06.676Z,1.20
2023-04-30T10:49:35.136Z,2.50
2023-04-30T10:52:05.285Z,3.10
2023-04-30T10:54:37.721Z,1.60
2023-04-30T10:57:14.730Z,2.90
2023-04-30T10:59:47.414Z,1.40
2023-04-30T11:02:17.794Z,2.77
2023-04-30T11:05:11.698Z,2.00
2023-04-30T11:07:49.994Z,1.88
2023-04-30T11:10:23.211Z,1.42
2023-04-30T11:12:53.474Z,1.08
2023-04-30T11:15:27.140Z,2.20
2023-04-30T11:17:59.712Z,1.40
2023-04-30T11:20:28.819Z,1.95
2023-04-30T11:23:39.472Z,1.50
2023-04-30T11:26:09.034Z,3.10
2023-04-30T11:28:38.485Z,1.48
2023-04-30T11:31:07.080Z,1.02
2023-04-30T11:33:35.982Z,1.50
2023-04-30T11:36:04.542Z,2.05
2023-04-30T11:38:37.386Z,1.95
2023-04-30T11:41:06.341Z,2.83
2023-04-30T11:43:35.315Z,2.67
2023-04-30T11:46:13.969Z,2.90
2023-04-30T11:48:46.879Z,3.00
2023-04-30T11:51:16.085Z,1.92
2023-04-30T11:53:46.049Z,2.67
2023-04-30T11:56:14.578Z,2.45
2023-04-30T11:58:42.952Z,2.13
2023-04-30T12:01:11.301Z,1.27
2023-04-30T12:03:48.300Z,3.03
2023-04-30T12:06:24.856Z,1.13
2023-04-30T12:08:55.080Z,1.45
2023-04-30T12:11:25.438Z,0.90
2023-04-30T12:13:56.544Z,2.58
2023-04-30T12:16:38.819Z,1.88
2023-04-30T12:19:07.239Z,2.45
2023-04-30T12:21:36.257Z,3.15
2023-04-30T12:24:04.851Z,2.45
2023-04-30T12:26:40.437Z,3.15
2023-04-30T12:29:14.290Z,5.18
2023-04-30T12:31:44.582Z,1.38
2023-04-30T12:34:14.388Z,2.40
2023-04-30T12:36:43.241Z,1.10
2023-04-30T12:39:15.980Z,3.95
2023-04-30T12:41:46.526Z,0.93
2023-04-30T12:44:42.153Z,1.30
2023-04-30T12:47:10.472Z,1.50
2023-04-30T12:49:38.796Z,1.20
2023-04-30T12:52:10.334Z,2.50
2023-04-30T12:54:39.642Z,4.20
2023-04-30T12:57:10.839Z,1.35
2023-04-30T12:59:56.746Z,3.03
2023-04-30T13:02:27.349Z,1.27
2023-04-30T13:04:57.046Z,2.63
2023-04-30T13:07:25.475Z,3.38
2023-04-30T13:09:53.966Z,1.40
2023-04-30T13:12:22.414Z,1.42
2023-04-30T13:14:50.709Z,2.47
2023-04-30T13:17:18.972Z,2.67
2023-04-30T13:19:47.274Z,1.70
2023-04-30T13:22:15.544Z,3.03
2023-04-30T13:24:43.818Z,1.55
2023-04-30T13:27:12.106Z,2.00
2023-04-30T13:29:40.830Z,1.85
2023-04-30T13:32:10.153Z,1.00
2023-04-30T13:34:39.026Z,1.55
2023-04-30T13:37:07.286Z,2.00
2023-04-30T13:39:35.632Z,1.02
2023-04-30T13:42:04.571Z,1.13
2023-04-30T13:44:33.901Z,0.93
2023-04-30T13:47:02.352Z,1.23
2023-04-30T13:49:30.872Z,0.80
2023-04-30T13:51:59.137Z,0.90
2023-04-30T13:54:27.489Z,1.08
2023-04-30T13:56:56.023Z,1.65
2023-04-30T13:59:24.317Z,0.88
2023-04-30T14:01:52.818Z,1.73
2023-04-30T14:04:21.271Z,1.15
2023-04-30T14:06:50.345Z,0.80
2023-04-30T14:09:18.685Z,1.10
2023-04-30T14:11:47.107Z,0.98
2023-04-30T14:14:15.733Z,1.15
2023-04-30T14:16:44.885Z,1.20
2023-04-30T14:19:13.705Z,1.00
2023-04-30T14:21:42.152Z,2.33
2023-04-30T14:24:12.830Z,2.92
2023-04-30T14:26:41.930Z,1.63
2023-04-30T14:29:10.704Z,1.50
2023-04-30T14:31:39.221Z,4.05
2023-04-30T14:34:07.552Z,4.60
2023-04-30T14:36:36.975Z,1.30
2023-04-30T14:39:05.554Z,1.10
2023-04-30T14:41:37.764Z,2.85
2023-04-30T14:44:06.057Z,1.00
2023-04-30T14:46:34.854Z,1.20
2023-04-30T14:49:04.408Z,2.22
2023-04-30T14:51:33.359Z,1.15
2023-04-30T14:54:02.830Z,1.20
2023-04-30T14:56:31.215Z,1.27
2023-04-30T14:58:59.526Z,2.88
2023-04-30T15:01:28.764Z,2.00
2023-04-30T15:03:57.133Z,1.02
2023-04-30T15:06:26.230Z,1.17
2023-04-30T15:08:54.512Z,1.52
2023-04-30T15:11:24.244Z,1.30
2023-04-30T15:13:53.432Z,1.50
2023-04-30T15:16:22.027Z,1.27
2023-04-30T15:18:50.634Z,1.40
2023-04-30T15:21:18.927Z,1.40
2023-04-30T15:23:47.172Z,2.00
2023-04-30T15:26:15.489Z,1.17
2023-04-30T15:28:44.340Z,2.88
2023-04-30T15:31:12.574Z,2.03
2023-04-30T15:33:42.205Z,2.80
2023-04-30T15:36:11.429Z,2.30
2023-04-30T15:38:39.753Z,3.05
2023-04-30T15:41:08.006Z,2.80
2023-04-30T15:43:36.935Z,1.77
2023-04-30T15:46:05.377Z,1.73
2023-04-30T15:48:33.733Z,2.70
2023-04-30T15:51:01.938Z,3.78
2023-04-30T15:53:30.230Z,3.17
2023-04-30T15:55:58.647Z,3.80
2023-04-30T15:58:26.887Z,3.05
2023-04-30T16:00:55.086Z,3.33
2023-04-30T16:03:23.472Z,5.07
2023-04-30T16:05:51.947Z,3.28
2023-04-30T16:08:20.280Z,4.43
2023-04-30T16:10:48.703Z,4.45
2023-04-30T16:13:17.083Z,3.13
2023-04-30T16:15:45.454Z,2.05
2023-04-30T16:18:13.682Z,5.40
2023-04-30T16:20:43.127Z,3.70
2023-04-30T16:23:11.418Z,2.78
2023-04-30T16:25:39.652Z,3.80
2023-04-30T16:28:08.001Z,2.97
2023-04-30T16:30:36.963Z,5.60
2023-04-30T16:33:05.492Z,2.30
2023-04-30T16:35:33.779Z,2.60
2023-04-30T16:38:02.675Z,4.13
2023-04-30T16:40:31.134Z,2.90
2023-04-30T16:42:59.781Z,2.80
2023-04-30T16:45:28.973Z,3.58
2023-04-30T16:47:57.472Z,2.80
2023-04-30T16:50:26.903Z,2.83
2023-04-30T16:52:55.414Z,2.63
2023-04-30T16:55:23.962Z,1.35
2023-04-30T16:57:53.914Z,2.28
2023-04-30T17:00:22.321Z,4.28
2023-04-30T17:02:53.047Z,2.90
2023-04-30T17:05:21.957Z,2.05
2023-04-30T17:07:50.270Z,3.30
2023-04-30T17:10:19.681Z,3.92
2023-04-30T17:12:50.217Z,5.22
2023-04-30T17:15:20.272Z,3.95
2023-04-30T17:17:48.562Z,4.72
2023-04-30T17:20:16.902Z,2.95
2023-04-30T17:22:45.160Z,2.67
2023-04-30T17:25:13.610Z,3.63
2023-04-30T17:27:41.892Z,3.05
2023-04-30T17:30:10.341Z,2.60
2023-04-30T17:32:38.870Z,3.60
2023-04-30T17:35:07.778Z,4.63
2023-04-30T17:37:36.444Z,5.95
2023-04-30T17:40:05.501Z,3.47
2023-04-30T17:42:34.180Z,6.05
2023-04-30T17:45:02.673Z,3.78
2023-04-30T17:47:32.238Z,3.08
2023-04-30T17:50:03.345Z,3.67
2023-04-30T17:52:33.536Z,3.53
2023-04-30T17:55:02.313Z,3.90
2023-04-30T17:57:31.081Z,4.55
2023-04-30T17:59:59.468Z,3.33
2023-04-30T18:02:28.260Z,3.22
2023-04-30T18:04:56.649Z,2.28
2023-04-30T18:07:25.096Z,3.45
2023-04-30T18:09:53.617Z,3.35
2023-04-30T18:12:22.567Z,2.15
2023-04-30T18:14:50.803Z,3.08
2023-04-30T18:17:19.039Z,3.42
2023-04-30T18:19:48.797Z,3.75
2023-04-30T18:22:17.239Z,3.97
2023-04-30T18:24:45.486Z,2.10
2023-04-30T18:27:14.041Z,2.42
2023-04-30T18:29:43.089Z,7.50
2023-04-30T18:32:12.788Z,4.93
2023-04-30T18:34:41.197Z,3.90
2023-04-30T18:37:09.511Z,4.35
2023-04-30T18:39:37.834Z,3.88
2023-04-30T18:42:06.083Z,3.55
2023-04-30T18:44:34.943Z,5.60
2023-04-30T18:47:04.603Z,5.95
2023-04-30T18:49:32.813Z,6.88
2023-04-30T18:52:01.416Z,5.43
2023-04-30T18:54:29.805Z,4.03
2023-04-30T18:56:58.488Z,7.78
2023-04-30T18:59:28.918Z,4.47
2023-04-30T19:01:57.232Z,3.53
2023-04-30T19:04:25.517Z,4.38
2023-04-30T19:06:55.753Z,4.03
2023-04-30T19:09:24.173Z,6.15
2023-04-30T19:11:53.228Z,6.20
2023-04-30T19:14:21.516Z,6.72
2023-04-30T19:16:49.929Z,6.53
2023-04-30T19:19:18.266Z,5.75
2023-04-30T19:21:46.848Z,7.70
2023-04-30T19:24:15.232Z,6.85
2023-04-30T19:26:43.543Z,5.53
2023-04-30T19:29:11.749Z,7.93
2023-04-30T19:31:40.134Z,6.47
2023-04-30T19:34:08.549Z,6.45
2023-04-30T19:36:36.817Z,6.90
2023-04-30T19:39:07.319Z,4.72
2023-04-30T19:41:35.711Z,3.72
2023-04-30T19:44:04.029Z,4.22
2023-04-30T19:46:32.571Z,2.92
2023-04-30T19:49:00.823Z,3.70
2023-04-30T19:51:29.265Z,2.45
2023-04-30T19:53:59.082Z,4.35
2023-04-30T19:56:27.498Z,3.03
2023-04-30T19:58:55.867Z,2.22
2023-04-30T20:01:24.132Z,4.38
2023-04-30T20:03:52.488Z,4.07
2023-04-30T20:06:21.201Z,4.85
2023-04-30T20:08:49.653Z,3.88
2023-04-30T20:11:18.185Z,6.65
2023-04-30T20:13:46.768Z,8.57
2023-04-30T20:16:19.709Z,12.48
2023-04-30T20:18:48.993Z,8.25
2023-04-30T20:21:19.987Z,9.18
2023-04-30T20:23:49.345Z,6.70
2023-04-30T20:26:18.387Z,9.43
2023-04-30T20:28:46.670Z,9.23
2023-04-30T20:31:15.229Z,11.85
2023-04-30T20:33:43.588Z,9.27
2023-04-30T20:36:11.912Z,8.88
2023-04-30T20:38:41.614Z,9.55
2023-04-30T20:41:10.264Z,12.05
2023-04-30T20:43:38.477Z,11.40
2023-04-30T20:46:07.093Z,12.63
2023-04-30T20:48:35.659Z,13.10
2023-04-30T20:51:03.928Z,14.30
2023-04-30T20:53:32.185Z,9.90
2023-04-30T20:56:01.476Z,7.93
2023-04-30T20:58:29.737Z,5.88
2023-04-30T21:00:57.951Z,6.32
2023-04-30T21:03:27.054Z,4.22
2023-04-30T21:05:55.430Z,3.45
2023-04-30T21:08:23.656Z,4.15
2023-04-30T21:10:52.520Z,3.67
2023-04-30T21:13:20.820Z,6.00
2023-04-30T21:15:52.263Z,4.15
2023-04-30T21:18:20.471Z,5.00
2023-04-30T21:20:48.995Z,6.28
2023-04-30T21:23:17.212Z,12.60
2023-04-30T21:25:45.478Z,5.28
2023-04-30T21:28:13.677Z,6.72
2023-04-30T21:30:42.185Z,7.78
2023-04-30T21:33:10.460Z,4.75
2023-04-30T21:35:40.016Z,4.40
2023-04-30T21:38:08.322Z,3.58
2023-04-30T21:40:36.548Z,5.40
2023-04-30T21:43:05.258Z,3.05
2023-04-30T21:45:35.672Z,5.35
2023-04-30T21:48:04.131Z,2.92
2023-04-30T21:50:35.502Z,1.80
2023-04-30T21:53:03.817Z,2.47
2023-04-30T21:55:32.316Z,3.00
2023-04-30T21:58:00.630Z,2.80
2023-04-30T22:00:28.974Z,3.47
2023-04-30T22:02:58.469Z,2.50
2023-04-30T22:05:26.721Z,3.78
2023-04-30T22:07:55.116Z,4.40
2023-04-30T22:10:23.668Z,3.40
2023-04-30T22:12:52.004Z,3.55
2023-04-30T22:15:20.286Z,2.63
2023-04-30T22:17:49.637Z,2.28
2023-04-30T22:20:18.024Z,3.30
2023-04-30T22:22:46.238Z,4.57
2023-04-30T22:25:15.104Z,2.83
2023-04-30T22:27:43.500Z,3.30
2023-04-30T22:30:11.981Z,2.15
2023-04-30T22:32:40.658Z,4.53
2023-04-30T22:35:11.107Z,1.95
2023-04-30T22:37:40.076Z,3.55
2023-04-30T22:40:08.879Z,6.43
2023-04-30T22:42:37.294Z,1.90
2023-04-30T22:45:06.132Z,1.98
2023-04-30T22:47:35.283Z,3.03
2023-04-30T22:50:04.167Z,3.13
2023-04-30T22:52:33.289Z,2.80
2023-04-30T22:55:03.633Z,3.55
2023-04-30T22:57:32.182Z,2.95
2023-04-30T23:00:00.522Z,4.43
2023-04-30T23:02:28.957Z,3.78
2023-04-30T23:04:57.751Z,4.60
2023-04-30T23:07:26.081Z,3.25
2023-04-30T23:09:54.604Z,5.70
2023-04-30T23:12:23.307Z,3.78
2023-04-30T23:14:51.579Z,2.25
2023-04-30T23:17:19.960Z,4.57
2023-04-30T23:19:48.186Z,4.10
2023-04-30T23:22:17.120Z,3.38
2023-04-30T23:24:45.421Z,2.92
2023-04-30T23:27:13.750Z,5.38
2023-04-30T23:29:43.022Z,3.40
2023-04-30T23:32:11.504Z,4.82
2023-04-30T23:34:39.726Z,6.00
2023-04-30T23:37:07.932Z,3.25
2023-04-30T23:39:36.953Z,6.13
2023-04-30T23:42:05.610Z,4.90
2023-04-30T23:44:34.079Z,6.53
2023-04-30T23:47:02.411Z,5.18
2023-04-30T23:49:30.617Z,4.53
2023-04-30T23:51:58.946Z,2.92
2023-04-30T23:54:27.248Z,2.60
2023-04-30T23:56:55.490Z,3.42
2023-04-30T23:59:25.847Z,2.03
